Wetterdaten: Woche 16.02.09 - 22.02.09 (KW8)
Datum Zeit Temp. A. Feuchte A. Luftdruck Regen Wind Richtung Taupunkt Windchill Windben
16.02.2009 00:00 -2,4 C 69 % 1024,8 hPa 0,0 l/m 6,9 km/h W -7,4 C -3,1 C 18,1 km/h
16.02.2009 01:00 -2,5 C 70 % 1024,3 hPa 0,0 l/m 5,4 km/h NW -7,3 C -2,5 C 15,3 km/h
16.02.2009 02:00 -2,1 C 66 % 1023,9 hPa 0,0 l/m 5,7 km/h W-SW -7,6 C -2,1 C 17,3 km/h
16.02.2009 03:00 -1,8 C 66 % 1023,3 hPa 0,0 l/m 5,6 km/h W -7,4 C -1,8 C 16,9 km/h
16.02.2009 04:00 -1,7 C 68 % 1022,9 hPa 0,0 l/m 6,3 km/h W-NW -6,8 C -2,0 C 19,7 km/h
16.02.2009 05:00 -2,1 C 76 % 1022,6 hPa 0,0 l/m 6,0 km/h W-NW -5,8 C -2,2 C 18,1 km/h
16.02.2009 06:00 -2,1 C 78 % 1022,3 hPa 0,0 l/m 6,2 km/h W -5,3 C -2,7 C 18,5 km/h
16.02.2009 07:00 -1,8 C 77 % 1021,9 hPa 0,0 l/m 5,6 km/h W-NW -5,3 C -1,9 C 17,3 km/h
16.02.2009 08:00 -1,5 C 75 % 1021,6 hPa 0,0 l/m 6,3 km/h W-SW -5,3 C -2,2 C 18,1 km/h
16.02.2009 09:00 -0,9 C 73 % 1020,9 hPa 0,0 l/m 8,5 km/h W -5,1 C -3,0 C 23,3 km/h
16.02.2009 10:00 -1,0 C 77 % 1020,7 hPa 0,0 l/m 8,3 km/h W-SW -4,4 C -2,9 C 27,8 km/h
16.02.2009 11:00 -0,9 C 81 % 1020,4 hPa 0,0 l/m 7,6 km/h W-NW -3,8 C -2,3 C 19,7 km/h
16.02.2009 12:00 -0,9 C 79 % 1019,7 hPa 0,0 l/m 10,3 km/h S-SW -4,0 C -4,6 C 24,1 km/h
16.02.2009 13:00 -0,6 C 80 % 1018,8 hPa 0,0 l/m 14,5 km/h W -3,6 C -7,3 C 35,0 km/h
16.02.2009 14:00 0,1 C 79 % 1018,2 hPa 0,0 l/m 14,1 km/h W-SW -3,1 C -6,4 C 33,0 km/h
16.02.2009 15:00 0,4 C 79 % 1017,9 hPa 0,6 l/m 15,4 km/h NW -2,8 C -6,7 C 35,0 km/h
16.02.2009 16:00 0,0 C 83 % 1017,7 hPa 0,0 l/m 13,8 km/h W -2,5 C -6,2 C 35,0 km/h
16.02.2009 17:00 0,2 C 83 % 1017,9 hPa 0,0 l/m 12,0 km/h W-SW -2,4 C -4,8 C 27,8 km/h
16.02.2009 18:00 -0,3 C 88 % 1017,9 hPa 0,0 l/m 12,0 km/h W-NW -2,1 C -5,4 C 28,6 km/h
16.02.2009 19:00 -0,2 C 88 % 1017,8 hPa 0,0 l/m 9,8 km/h S-SW -1,9 C -3,4 C 25,7 km/h
16.02.2009 20:00 0,0 C 88 % 1017,6 hPa 0,0 l/m 11,7 km/h W-SW -1,8 C -4,7 C 24,9 km/h
16.02.2009 21:00 0,2 C 87 % 1017,3 hPa 0,0 l/m 10,1 km/h W -1,8 C -3,3 C 26,1 km/h
16.02.2009 22:00 0,2 C 88 % 1016,8 hPa 0,0 l/m 9,9 km/h W-NW -1,5 C -3,1 C 22,9 km/h
16.02.2009 23:00 0,3 C 89 % 1016,4 hPa 0,0 l/m 6,9 km/h W-NW -1,3 C -0,3 C 19,3 km/h
17.02.2009 00:00 0,3 C 89 % 1016,0 hPa 0,0 l/m 5,4 km/h W -1,3 C 0,3 C 14,9 km/h
17.02.2009 01:00 0,4 C 89 % 1015,3 hPa 0,0 l/m 5,2 km/h W -1,2 C 0,4 C 14,9 km/h
17.02.2009 02:00 0,4 C 90 % 1014,4 hPa 0,0 l/m 4,7 km/h W-NW -1,1 C 0,4 C 14,9 km/h
17.02.2009 03:00 0,5 C 90 % 1013,3 hPa 0,0 l/m 5,0 km/h S-SW -1,0 C 0,5 C 14,5 km/h
17.02.2009 04:00 0,7 C 90 % 1012,3 hPa 0,0 l/m 5,8 km/h W -0,8 C 0,6 C 16,1 km/h
17.02.2009 05:00 1,1 C 90 % 1011,2 hPa 0,6 l/m 6,6 km/h W -0,4 C 0,6 C 17,3 km/h
17.02.2009 06:00 1,5 C 88 % 1010,4 hPa 1,8 l/m 8,7 km/h W -0,3 C -0,7 C 22,5 km/h
17.02.2009 07:00 1,5 C 88 % 1009,9 hPa 1,8 l/m 7,9 km/h W -0,3 C 0,1 C 20,5 km/h
17.02.2009 08:00 1,8 C 87 % 1009,7 hPa 1,5 l/m 8,8 km/h W-NW -0,2 C -0,5 C 23,4 km/h
17.02.2009 09:00 2,0 C 86 % 1009,7 hPa 1,8 l/m 8,0 km/h W-NW -0,1 C 0,4 C 20,5 km/h
17.02.2009 10:00 2,0 C 86 % 1009,6 hPa 2,1 l/m 6,7 km/h W-NW -0,1 C 1,7 C 18,9 km/h
17.02.2009 11:00 1,6 C 89 % 1009,6 hPa 1,8 l/m 6,5 km/h NW -0,1 C 1,1 C 15,3 km/h
17.02.2009 12:00 0,9 C 91 % 1009,9 hPa 0,9 l/m 6,9 km/h NO -0,4 C -0,4 C 19,3 km/h
17.02.2009 13:00 -0,4 C 87 % 1010,8 hPa 0,0 l/m 0,0 km/h N -2,4 C -0,4 C 9,6 km/h
17.02.2009 14:00 -0,5 C 80 % 1011,4 hPa 0,0 l/m 0,0 km/h N -3,5 C -0,5 C 0,0 km/h
17.02.2009 15:00 -1,3 C 84 % 1012,4 hPa 0,0 l/m 0,0 km/h N -3,6 C -1,3 C 0,0 km/h
17.02.2009 16:00 -2,3 C 84 % 1013,7 hPa 0,0 l/m 0,0 km/h N -4,6 C -2,3 C 0,0 km/h
17.02.2009 17:00 -2,7 C 84 % 1015,0 hPa 0,0 l/m 0,0 km/h N -5,1 C -2,7 C 0,0 km/h
17.02.2009 18:00 -2,8 C 76 % 1016,2 hPa 0,0 l/m 0,0 km/h N -6,6 C -2,8 C 0,0 km/h
17.02.2009 19:00 -3,4 C 73 % 1017,0 hPa 0,0 l/m 0,0 km/h N -7,5 C -3,4 C 0,0 km/h
17.02.2009 20:00 -3,9 C 75 % 1017,6 hPa 0,0 l/m 0,0 km/h N -7,7 C -3,9 C 0,0 km/h
17.02.2009 21:00 -4,4 C 74 % 1018,3 hPa 0,0 l/m 0,0 km/h N -8,4 C -4,4 C 0,0 km/h
17.02.2009 22:00 -4,7 C 75 % 1019,1 hPa 0,0 l/m 0,0 km/h N -8,4 C -4,7 C 0,0 km/h
17.02.2009 23:00 -5,2 C 75 % 1019,8 hPa 0,0 l/m 0,0 km/h N -8,9 C -5,2 C 0,0 km/h
18.02.2009 00:00 -5,6 C 76 % 1020,7 hPa 0,0 l/m 0,0 km/h N -9,2 C -5,6 C 0,0 km/h
18.02.2009 01:00 -5,6 C 76 % 1021,5 hPa 0,0 l/m 0,0 km/h N -9,2 C -5,6 C 0,0 km/h
18.02.2009 02:00 -5,8 C 75 % 1021,8 hPa 0,0 l/m 0,0 km/h N -9,5 C -5,8 C 0,0 km/h
18.02.2009 03:00 -5,7 C 75 % 1022,1 hPa 0,0 l/m 6,2 km/h NW -9,4 C -7,6 C 15,7 km/h
18.02.2009 04:00 -5,7 C 75 % 1022,3 hPa 0,0 l/m 7,6 km/h NW -9,5 C -7,2 C 17,7 km/h
18.02.2009 05:00 -5,6 C 75 % 1022,4 hPa 0,0 l/m 9,3 km/h NW -9,3 C -8,8 C 20,9 km/h
18.02.2009 06:00 -5,0 C 76 % 1022,6 hPa 0,0 l/m 12,4 km/h W-NW -8,7 C -11,1 C 25,8 km/h
18.02.2009 07:00 -5,0 C 78 % 1022,7 hPa 0,0 l/m 11,6 km/h W-NW -8,2 C -10,4 C 24,5 km/h
18.02.2009 08:00 -5,0 C 83 % 1022,7 hPa 0,0 l/m 14,2 km/h W -7,4 C -12,5 C 30,6 km/h
18.02.2009 09:00 -4,4 C 83 % 1022,7 hPa 0,0 l/m 14,4 km/h W -6,8 C -11,9 C 29,4 km/h
18.02.2009 10:00 -3,8 C 81 % 1022,7 hPa 0,0 l/m 15,8 km/h W-NW -6,5 C -12,0 C 32,6 km/h
18.02.2009 11:00 -3,1 C 79 % 1022,8 hPa 0,0 l/m 15,0 km/h W -6,3 C -10,7 C 28,2 km/h
18.02.2009 12:00 -2,7 C 78 % 1022,6 hPa 0,0 l/m 15,6 km/h W-NW -5,9 C -10,6 C 30,2 km/h
18.02.2009 13:00 -2,3 C 78 % 1022,3 hPa 0,0 l/m 13,6 km/h W -5,6 C -8,8 C 29,4 km/h
18.02.2009 14:00 -2,3 C 79 % 1022,1 hPa 0,0 l/m 12,3 km/h W-SW -5,5 C -7,9 C 25,3 km/h
18.02.2009 15:00 -2,6 C 81 % 1022,0 hPa 0,0 l/m 11,9 km/h SW -5,5 C -7,9 C 24,1 km/h
18.02.2009 16:00 -3,0 C 83 % 1022,1 hPa 0,0 l/m 11,7 km/h NW -5,5 C -8,1 C 24,5 km/h
18.02.2009 17:00 -3,0 C 83 % 1022,3 hPa 0,0 l/m 11,2 km/h W -5,5 C -7,9 C 25,8 km/h
18.02.2009 18:00 -3,1 C 83 % 1022,7 hPa 0,0 l/m 11,2 km/h W-NW -5,6 C -7,9 C 26,1 km/h
18.02.2009 19:00 -3,0 C 82 % 1022,9 hPa 0,0 l/m 10,2 km/h W -5,7 C -6,9 C 23,3 km/h
18.02.2009 20:00 -3,0 C 79 % 1023,3 hPa 0,0 l/m 8,8 km/h W-NW -6,1 C -5,5 C 22,1 km/h
18.02.2009 21:00 -3,0 C 79 % 1023,3 hPa 0,0 l/m 8,5 km/h W -6,2 C -5,3 C 21,3 km/h
18.02.2009 22:00 -3,0 C 78 % 1023,4 hPa 0,0 l/m 9,9 km/h W-NW -6,3 C -6,7 C 22,1 km/h
18.02.2009 23:00 -3,1 C 77 % 1023,5 hPa 0,0 l/m 10,2 km/h N-NW -6,5 C -7,1 C 22,1 km/h
19.02.2009 00:00 -3,3 C 76 % 1023,4 hPa 0,0 l/m 10,2 km/h W-NW -6,9 C -7,3 C 20,1 km/h
19.02.2009 01:00 -3,5 C 76 % 1023,3 hPa 0,0 l/m 9,2 km/h NW -7,1 C -6,5 C 20,1 km/h
19.02.2009 02:00 -3,7 C 75 % 1023,3 hPa 0,0 l/m 8,9 km/h W -7,5 C -6,4 C 20,1 km/h
19.02.2009 03:00 -3,8 C 74 % 1023,3 hPa 0,0 l/m 8,8 km/h NW -7,7 C -6,4 C 19,3 km/h
19.02.2009 04:00 -4,1 C 73 % 1023,3 hPa 0,0 l/m 9,3 km/h NW -8,2 C -7,2 C 20,5 km/h
19.02.2009 05:00 -4,5 C 74 % 1023,4 hPa 0,0 l/m 7,8 km/h N-NW -8,5 C -6,2 C 16,9 km/h
19.02.2009 06:00 -4,4 C 74 % 1023,7 hPa 0,0 l/m 9,2 km/h N-NW -8,3 C -7,5 C 20,5 km/h
19.02.2009 07:00 -4,3 C 77 % 1024,1 hPa 0,0 l/m 7,5 km/h NW -7,6 C -5,5 C 18,1 km/h
19.02.2009 08:00 -3,9 C 77 % 1024,7 hPa 0,0 l/m 7,1 km/h W-NW -7,4 C -5,0 C 16,5 km/h
19.02.2009 09:00 -3,1 C 72 % 1024,7 hPa 0,0 l/m 10,1 km/h NW -7,5 C -6,9 C 21,7 km/h
19.02.2009 10:00 -2,9 C 70 % 1024,8 hPa 0,0 l/m 9,6 km/h NW -7,6 C -6,2 C 22,5 km/h
19.02.2009 11:00 -3,2 C 75 % 1024,8 hPa 0,0 l/m 11,4 km/h NW -6,9 C -8,1 C 21,7 km/h
19.02.2009 12:00 -2,9 C 73 % 1024,4 hPa 0,0 l/m 11,0 km/h W-NW -7,0 C -7,5 C 23,6 km/h
19.02.2009 13:00 -2,3 C 68 % 1024,1 hPa 0,0 l/m 11,3 km/h W-SW -7,4 C -7,0 C 24,1 km/h
19.02.2009 14:00 -1,8 C 63 % 1024,1 hPa 0,0 l/m 12,3 km/h W -7,9 C -7,2 C 28,2 km/h
19.02.2009 15:00 -2,1 C 63 % 1024,4 hPa 0,0 l/m 12,6 km/h W -8,2 C -7,8 C 27,0 km/h
19.02.2009 16:00 -2,7 C 65 % 1024,6 hPa 0,0 l/m 11,3 km/h W-SW -8,4 C -7,4 C 28,2 km/h
19.02.2009 17:00 -3,2 C 66 % 1024,8 hPa 0,0 l/m 11,6 km/h W-SW -8,6 C -8,4 C 28,2 km/h
19.02.2009 18:00 -3,2 C 67 % 1025,4 hPa 0,0 l/m 11,0 km/h W-NW -8,5 C -7,9 C 24,9 km/h
19.02.2009 19:00 -3,1 C 67 % 1025,3 hPa 0,0 l/m 12,5 km/h NW -8,3 C -8,9 C 24,5 km/h
19.02.2009 20:00 -2,8 C 67 % 1025,5 hPa 0,0 l/m 13,3 km/h W-NW -8,2 C -9,2 C 28,2 km/h
19.02.2009 21:00 -2,7 C 65 % 1025,7 hPa 0,0 l/m 10,3 km/h NW -8,4 C -6,6 C 24,5 km/h
19.02.2009 22:00 -2,3 C 65 % 1025,9 hPa 0,0 l/m 11,5 km/h NW -8,1 C -7,2 C 25,4 km/h
19.02.2009 23:00 -2,2 C 65 % 1025,9 hPa 0,0 l/m 12,5 km/h NW -7,9 C -7,9 C 27,4 km/h
20.02.2009 00:00 -2,2 C 67 % 1026,3 hPa 0,0 l/m 11,3 km/h NW -7,4 C -6,9 C 25,7 km/h
20.02.2009 01:00 -2,3 C 67 % 1026,0 hPa 0,0 l/m 11,9 km/h W -7,6 C -7,6 C 27,0 km/h
20.02.2009 02:00 -2,5 C 64 % 1025,7 hPa 0,0 l/m 10,7 km/h W-NW -8,4 C -6,7 C 28,6 km/h
20.02.2009 03:00 -2,3 C 61 % 1025,4 hPa 0,0 l/m 11,4 km/h W-NW -8,7 C -7,1 C 23,7 km/h
20.02.2009 04:00 -1,8 C 61 % 1025,3 hPa 0,0 l/m 11,1 km/h W -8,4 C -6,3 C 26,5 km/h
20.02.2009 05:00 -1,8 C 63 % 1025,3 hPa 0,0 l/m 13,0 km/h W-SW -8,0 C -7,7 C 30,6 km/h
20.02.2009 06:00 -1,9 C 66 % 1025,0 hPa 0,0 l/m 13,6 km/h NW -7,4 C -8,3 C 35,4 km/h
20.02.2009 07:00 -2,4 C 75 % 1025,1 hPa 0,0 l/m 15,5 km/h W-SW -6,2 C -10,1 C 35,0 km/h
20.02.2009 08:00 -2,3 C 77 % 1024,8 hPa 0,0 l/m 21,6 km/h W-NW -5,7 C -13,3 C 47,1 km/h
20.02.2009 09:00 -1,3 C 75 % 1024,6 hPa 0,0 l/m 20,1 km/h W -5,3 C -11,4 C 43,9 km/h
20.02.2009 10:00 0,4 C 66 % 1024,0 hPa 0,0 l/m 16,5 km/h W-NW -5,3 C -7,4 C 37,0 km/h
20.02.2009 11:00 0,9 C 63 % 1024,1 hPa 0,0 l/m 15,0 km/h SW -5,3 C -5,9 C 38,2 km/h
20.02.2009 12:00 1,0 C 65 % 1024,6 hPa 0,0 l/m 15,1 km/h SW -4,8 C -5,9 C 35,4 km/h
20.02.2009 13:00 0,5 C 72 % 1024,4 hPa 0,0 l/m 10,5 km/h W-SW -4,0 C -3,3 C 27,4 km/h
20.02.2009 14:00 0,2 C 76 % 1023,9 hPa 0,3 l/m 12,1 km/h W-SW -3,5 C -4,7 C 27,4 km/h
20.02.2009 15:00 0,2 C 79 % 1023,8 hPa 0,0 l/m 11,3 km/h W-NW -3,0 C -4,2 C 30,2 km/h
20.02.2009 16:00 0,1 C 82 % 1024,0 hPa 0,0 l/m 9,2 km/h W-NW -2,7 C -2,6 C 21,7 km/h
20.02.2009 17:00 -0,0 C 85 % 1024,2 hPa 0,0 l/m 7,3 km/h W -2,3 C -1,0 C 19,7 km/h
20.02.2009 18:00 -0,2 C 87 % 1024,4 hPa 0,0 l/m 8,7 km/h W -2,1 C -2,5 C 23,3 km/h
20.02.2009 19:00 0,1 C 87 % 1024,4 hPa 0,0 l/m 10,8 km/h W -1,8 C -4,0 C 24,9 km/h
20.02.2009 20:00 0,4 C 86 % 1024,5 hPa 0,0 l/m 9,5 km/h W-NW -1,7 C -2,5 C 20,1 km/h
20.02.2009 21:00 0,5 C 86 % 1024,8 hPa 0,0 l/m 8,2 km/h W-NW -1,6 C -1,3 C 18,9 km/h
20.02.2009 22:00 0,7 C 85 % 1024,8 hPa 0,0 l/m 7,9 km/h W-NW -1,6 C -0,8 C 18,5 km/h
20.02.2009 23:00 0,7 C 85 % 1025,0 hPa 0,0 l/m 7,4 km/h W -1,5 C -0,5 C 17,7 km/h
21.02.2009 00:00 0,7 C 86 % 1025,2 hPa 0,0 l/m 6,2 km/h W-NW -1,4 C 0,6 C 13,3 km/h
21.02.2009 01:00 0,7 C 88 % 1025,4 hPa 0,0 l/m 5,8 km/h W-NW -1,1 C 0,7 C 14,5 km/h
21.02.2009 02:00 0,6 C 89 % 1025,4 hPa 0,0 l/m 4,7 km/h NW -1,0 C 0,6 C 10,9 km/h
21.02.2009 03:00 0,6 C 89 % 1025,3 hPa 0,0 l/m 5,4 km/h NW -0,9 C 0,6 C 12,1 km/h
21.02.2009 04:00 0,8 C 89 % 1025,4 hPa 0,0 l/m 5,9 km/h NW -0,9 C 0,6 C 12,5 km/h
21.02.2009 05:00 0,8 C 89 % 1025,6 hPa 0,3 l/m 5,1 km/h NW -0,8 C 0,8 C 10,5 km/h
21.02.2009 06:00 0,7 C 89 % 1025,6 hPa 0,3 l/m 4,3 km/h NW -0,9 C 0,7 C 9,3 km/h
21.02.2009 07:00 0,8 C 90 % 1026,0 hPa 0,0 l/m 4,4 km/h NW -0,7 C 0,8 C 8,9 km/h
21.02.2009 08:00 1,1 C 90 % 1026,4 hPa 0,3 l/m 4,0 km/h NW -0,4 C 1,1 C 8,9 km/h
21.02.2009 09:00 0,7 C 90 % 1026,8 hPa 0,6 l/m 2,7 km/h NO -0,8 C 0,7 C 6,8 km/h
21.02.2009 10:00 0,3 C 90 % 1027,2 hPa 0,3 l/m 2,7 km/h NO -1,2 C 0,3 C 6,0 km/h
21.02.2009 11:00 0,0 C 89 % 1027,5 hPa 0,3 l/m 2,6 km/h NO -1,6 C 0,0 C 6,8 km/h
21.02.2009 12:00 0,3 C 87 % 1027,3 hPa 0,3 l/m 0,8 km/h NO -1,6 C 0,3 C 4,0 km/h
21.02.2009 13:00 0,6 C 85 % 1027,2 hPa 0,3 l/m 1,7 km/h N -1,7 C 0,6 C 5,2 km/h
21.02.2009 14:00 0,4 C 85 % 1027,2 hPa 0,0 l/m 2,1 km/h NO -1,7 C 0,4 C 5,6 km/h
21.02.2009 15:00 -0,1 C 86 % 1027,3 hPa 0,0 l/m 2,3 km/h N-NO -2,2 C -0,1 C 5,6 km/h
21.02.2009 16:00 -0,5 C 87 % 1027,4 hPa 0,0 l/m 1,9 km/h NO -2,5 C -0,5 C 4,8 km/h
21.02.2009 17:00 -0,8 C 85 % 1027,4 hPa 0,0 l/m 2,0 km/h NO -3,1 C -0,8 C 6,0 km/h
21.02.2009 18:00 -0,8 C 83 % 1027,8 hPa 0,0 l/m 2,5 km/h NW -3,4 C -0,8 C 6,4 km/h
21.02.2009 19:00 -0,8 C 84 % 1027,9 hPa 0,0 l/m 2,7 km/h NW -3,2 C -0,8 C 6,4 km/h
21.02.2009 20:00 -1,1 C 80 % 1027,9 hPa 0,0 l/m 2,6 km/h NO -4,1 C -1,1 C 6,8 km/h
21.02.2009 21:00 -1,4 C 76 % 1028,1 hPa 0,0 l/m 3,0 km/h NO -5,0 C -1,4 C 7,2 km/h
21.02.2009 22:00 -2,0 C 79 % 1028,2 hPa 0,0 l/m 2,7 km/h NO -5,2 C -2,0 C 6,8 km/h
21.02.2009 23:00 -2,3 C 82 % 1028,1 hPa 0,0 l/m 1,7 km/h N-NW -4,9 C -2,3 C 5,6 km/h
22.02.2009 00:00 -2,4 C 81 % 1028,1 hPa 0,0 l/m 2,8 km/h NW -5,2 C -2,4 C 6,4 km/h
22.02.2009 01:00 -2,5 C 81 % 1027,7 hPa 0,0 l/m 2,5 km/h NW -5,3 C -2,5 C 6,8 km/h
22.02.2009 02:00 -2,4 C 82 % 1026,9 hPa 0,0 l/m 0,9 km/h N -5,1 C -2,4 C 4,8 km/h
22.02.2009 03:00 -2,4 C 83 % 1026,2 hPa 0,0 l/m 0,8 km/h NO -4,9 C -2,4 C 4,4 km/h
22.02.2009 04:00 -2,5 C 84 % 1025,9 hPa 0,0 l/m 1,8 km/h N-NW -4,8 C -2,5 C 6,0 km/h
22.02.2009 05:00 -2,6 C 82 % 1025,4 hPa 0,0 l/m 1,0 km/h NO -5,3 C -2,6 C 4,0 km/h
22.02.2009 06:00 -2,8 C 80 % 1025,1 hPa 0,0 l/m 0,3 km/h O -5,7 C -2,8 C 2,0 km/h
22.02.2009 07:00 -3,2 C 82 % 1025,2 hPa 0,0 l/m 1,0 km/h O -5,8 C -3,2 C 4,0 km/h
22.02.2009 08:00 -3,6 C 85 % 1025,2 hPa 0,0 l/m 0,4 km/h N -5,8 C -3,6 C 3,6 km/h
22.02.2009 09:00 -3,0 C 86 % 1025,0 hPa 0,0 l/m 1,0 km/h S -5,0 C -3,0 C 5,6 km/h
22.02.2009 10:00 -2,3 C 85 % 1024,4 hPa 0,0 l/m 2,1 km/h S -4,6 C -2,3 C 7,6 km/h
22.02.2009 11:00 -1,8 C 84 % 1023,9 hPa 0,3 l/m 2,5 km/h S -4,3 C -1,8 C 9,7 km/h
22.02.2009 12:00 -1,2 C 83 % 1022,8 hPa 0,9 l/m 3,5 km/h S -3,7 C -1,2 C 13,3 km/h
22.02.2009 13:00 -0,7 C 83 % 1022,0 hPa 0,9 l/m 3,1 km/h SO -3,2 C -0,7 C 12,1 km/h
22.02.2009 14:00 -0,5 C 84 % 1021,1 hPa 0,6 l/m 3,0 km/h S -2,9 C -0,5 C 9,7 km/h
22.02.2009 15:00 -0,5 C 86 % 1020,4 hPa 0,3 l/m 2,9 km/h S-SO -2,6 C -0,5 C 12,1 km/h
22.02.2009 16:00 -0,6 C 87 % 1019,7 hPa 0,0 l/m 4,0 km/h S -2,5 C -0,6 C 14,1 km/h
22.02.2009 17:00 -0,8 C 89 % 1019,0 hPa 0,0 l/m 4,8 km/h S-SO -2,4 C -0,8 C 14,9 km/h
22.02.2009 18:00 -0,8 C 90 % 1018,7 hPa 0,0 l/m 2,8 km/h S-SO -2,3 C -0,8 C 9,3 km/h
22.02.2009 19:00 -0,9 C 90 % 1018,1 hPa 0,0 l/m 1,9 km/h S-SO -2,3 C -0,9 C 8,0 km/h
22.02.2009 20:00 -0,8 C 91 % 1017,5 hPa 0,0 l/m 2,5 km/h S-SW -2,2 C -0,8 C 9,7 km/h
22.02.2009 21:00 -0,5 C 91 % 1016,8 hPa 0,0 l/m 0,9 km/h N -1,8 C -0,5 C 5,2 km/h
22.02.2009 22:00 -0,1 C 92 % 1016,1 hPa 0,0 l/m 0,3 km/h N -1,3 C -0,1 C 3,6 km/h
22.02.2009 23:00 0,3 C 92 % 1015,5 hPa 0,0 l/m 0,6 km/h W-NW -0,8 C 0,3 C 5,2 km/h
Min-Datum _ 18.02.09 20.02.09 17.02.09 - 17.02.09 - 18.02.09 20.02.09 17.02.09
_ Min-Zeit 02:45 04:45 11:45 - 13:00 - 02:45 08:15 13:30
Minimum _ -5,9 C 59 % 1009,4 hPa - 0,0 km/h - -9,6 C -13,8 C 0,0 km/h
Max-Datum _ 17.02.09 17.02.09 21.02.09 17.02.09 20.02.09 - 17.02.09 17.02.09 20.02.09
_ Max-Zeit 09:45 12:30 22:15 10:15 09:00 - 12:00 10:45 09:00
Maximum _ 2,1 C 95 % 1028,3 hPa 2,1 l/m 23,1 km/h
W
- 0,1 C 1,9 C 57,9 km/h
W
Durchschnitt _ -1,6 C 80 % 1022,1 hPa #18,9 l/m 7,2 km/h NW -4,7 C -3,9 C 17,5 km/h